Time;durP1;ratioP1;P1;durP2;ratioP2;P2;SDS_P1;SDS_P2;PMS_P1;PMS_P2;Temp;Humidity;BMP_temperature;BMP_pressure;BME280_temperature;BME280_humidity;BME280_pressure;Samples;Min_cycle;Max_cycle;Signal;HPM_P1;HPM_P2
2023/08/11 00:02:43;;;;;;;7.05;5.45;;;;;11.50;96903.00;;;;8335078;28;20261;-66
2023/08/11 00:06:49;;;;;;;10.85;5.40;;;;;11.50;96909.00;;;;8336236;28;20784;-66
2023/08/11 00:10:57;;;;;;;7.13;5.35;;;;;11.50;96911.00;;;;8328581;28;20244;-66
2023/08/11 00:15:00;;;;;;;9.30;6.10;;;;;11.40;96909.00;;;;8327509;28;20728;-66
2023/08/11 00:19:04;;;;;;;11.57;6.55;;;;;11.40;96904.00;;;;8331314;28;20241;-67
2023/08/11 00:23:08;;;;;;;8.63;5.97;;;;;11.40;96902.00;;;;8329957;28;20305;-66
2023/08/11 00:27:14;;;;;;;8.30;5.45;;;;;11.30;96900.00;;;;8310359;28;20209;-66
2023/08/11 00:31:17;;;;;;;8.43;5.55;;;;;11.20;96899.00;;;;8337265;28;20627;-67
2023/08/11 00:35:22;;;;;;;11.52;5.90;;;;;11.20;96904.00;;;;8325133;28;20218;-67
2023/08/11 00:39:30;;;;;;;12.57;6.32;;;;;11.10;96898.00;;;;8332292;28;20714;-66
2023/08/11 00:43:34;;;;;;;27.73;7.68;;;;;11.10;96894.00;;;;8335830;28;20197;-66
2023/08/11 00:47:41;;;;;;;9.57;6.68;;;;;11.10;96896.00;;;;8331514;28;20667;-66
2023/08/11 00:51:44;;;;;;;8.60;5.85;;;;;11.10;96893.00;;;;8341369;28;20375;-66
2023/08/11 00:55:49;;;;;;;7.30;5.07;;;;;11.00;96893.00;;;;8339453;28;20223;-66
2023/08/11 00:59:52;;;;;;;9.63;6.28;;;;;11.00;96897.00;;;;8341779;28;20622;-66
2023/08/11 01:03:55;;;;;;;12.15;6.25;;;;;10.90;96897.00;;;;8336769;28;20229;-66
2023/08/11 01:08:06;;;;;;;8.68;5.70;;;;;10.90;96879.00;;;;8326550;28;20214;-66
2023/08/11 01:12:21;;;;;;;9.63;5.70;;;;;10.80;96888.00;;;;8327121;28;20340;-66
2023/08/11 01:16:28;;;;;;;9.75;6.28;;;;;10.80;96887.00;;;;8328200;28;20205;-66
2023/08/11 01:20:51;;;;;;;11.95;5.93;;;;;10.70;96891.00;;;;8323637;28;20204;-66
2023/08/11 01:24:57;;;;;;;11.75;6.63;;;;;10.70;96894.00;;;;8320120;28;20203;-66
2023/08/11 01:29:03;;;;;;;13.70;6.45;;;;;10.70;96896.00;;;;8337147;28;20205;-66
2023/08/11 01:33:06;;;;;;;9.07;6.72;;;;;10.70;96892.00;;;;8326291;28;20236;-67
2023/08/11 01:37:12;;;;;;;9.70;5.95;;;;;10.70;96894.00;;;;8330293;28;20197;-66
2023/08/11 01:41:16;;;;;;;10.13;6.15;;;;;10.60;96893.00;;;;8332679;28;20269;-68
2023/08/11 01:45:19;;;;;;;9.48;6.20;;;;;10.60;96895.00;;;;8340732;28;20288;-69
2023/08/11 01:49:27;;;;;;;7.35;5.57;;;;;10.50;96895.00;;;;8337290;28;20202;-68
2023/08/11 01:53:30;;;;;;;11.93;6.65;;;;;10.50;96900.00;;;;8348038;28;20226;-69
2023/08/11 01:57:36;;;;;;;9.50;5.60;;;;;10.50;96895.00;;;;8334966;28;20289;-69
2023/08/11 02:01:53;;;;;;;10.50;5.50;;;;;10.40;96901.00;;;;8348580;28;20219;-69
2023/08/11 02:05:58;;;;;;;9.93;5.88;;;;;10.40;96899.00;;;;8339005;28;20225;-69
2023/08/11 02:10:08;;;;;;;10.57;5.85;;;;;10.30;96893.00;;;;8338493;28;20901;-69
2023/08/11 02:14:12;;;;;;;10.88;6.30;;;;;10.30;96894.00;;;;8330009;28;20320;-69
2023/08/11 02:18:15;;;;;;;12.38;6.95;;;;;10.30;96891.00;;;;8334905;28;20297;-69
2023/08/11 02:22:18;;;;;;;11.90;6.63;;;;;10.30;96902.00;;;;8338450;28;20801;-70
2023/08/11 02:26:22;;;;;;;11.60;6.60;;;;;10.20;96901.00;;;;8341323;28;20295;-69
2023/08/11 02:30:29;;;;;;;14.43;6.28;;;;;10.20;96908.00;;;;8329797;28;20304;-70
2023/08/11 02:34:32;;;;;;;11.40;5.85;;;;;10.20;96910.00;;;;8336580;28;20225;-69
2023/08/11 02:38:35;;;;;;;10.40;6.05;;;;;10.20;96918.00;;;;8329551;28;20458;-67
2023/08/11 02:42:41;;;;;;;10.73;6.55;;;;;10.10;96909.00;;;;8327156;28;20205;-67
2023/08/11 02:46:46;;;;;;;11.80;6.68;;;;;10.10;96917.00;;;;8326749;28;20550;-68
2023/08/11 02:50:50;;;;;;;9.35;6.03;;;;;10.10;96912.00;;;;8327793;28;20217;-68
2023/08/11 02:54:55;;;;;;;13.77;7.22;;;;;10.00;96922.00;;;;8318639;28;20229;-68
2023/08/11 02:59:03;;;;;;;9.50;6.65;;;;;10.10;96912.00;;;;8326105;28;20292;-68
2023/08/11 03:03:09;;;;;;;10.43;5.93;;;;;10.00;96911.00;;;;8325863;22;20234;-68
2023/08/11 03:07:16;;;;;;;8.88;6.00;;;;;10.00;96922.00;;;;8277865;28;20575;-68
2023/08/11 03:11:21;;;;;;;9.77;6.32;;;;;10.00;96910.00;;;;8278290;28;20198;-68
2023/08/11 03:15:27;;;;;;;9.33;5.93;;;;;10.00;96907.00;;;;8278145;28;20703;-68
2023/08/11 03:19:32;;;;;;;9.33;5.93;;;;;9.90;96909.00;;;;8282279;28;20206;-67
2023/08/11 03:23:37;;;;;;;13.82;7.90;;;;;9.90;96916.00;;;;8262118;28;20198;-68
2023/08/11 03:27:43;;;;;;;11.53;6.70;;;;;9.90;96917.00;;;;8278459;28;20673;-68
2023/08/11 03:31:46;;;;;;;11.10;7.20;;;;;9.80;96906.00;;;;8271958;28;20191;-69
2023/08/11 03:35:55;;;;;;;16.90;7.67;;;;;9.80;96912.00;;;;8270579;28;20194;-68
2023/08/11 03:39:58;;;;;;;12.45;7.45;;;;;9.80;96920.00;;;;8281410;28;20728;-68
2023/08/11 03:44:01;;;;;;;10.60;6.80;;;;;9.80;96921.00;;;;8278853;28;20202;-68
2023/08/11 03:48:07;;;;;;;8.83;5.97;;;;;9.80;96914.00;;;;8274297;28;20198;-68
2023/08/11 03:52:14;;;;;;;12.50;7.20;;;;;9.80;96921.00;;;;8270998;28;20206;-68
2023/08/11 03:56:18;;;;;;;9.93;6.43;;;;;9.80;96930.00;;;;8268830;28;20201;-68
2023/08/11 04:00:23;;;;;;;11.87;7.37;;;;;9.80;96933.00;;;;8271790;28;20587;-68
2023/08/11 04:04:26;;;;;;;9.37;6.20;;;;;9.80;96927.00;;;;8256197;28;20703;-68
2023/08/11 04:08:31;;;;;;;12.97;6.70;;;;;9.80;96924.00;;;;8241103;28;20922;-68
2023/08/11 04:12:34;;;;;;;15.27;7.35;;;;;9.80;96934.00;;;;8249294;28;20230;-68
2023/08/11 04:16:37;;;;;;;13.15;6.78;;;;;9.80;96931.00;;;;8240841;28;20218;-68
2023/08/11 04:20:40;;;;;;;12.60;6.83;;;;;9.80;96930.00;;;;8249695;28;20196;-68
2023/08/11 04:24:45;;;;;;;14.73;7.18;;;;;9.80;96942.00;;;;8242841;28;20211;-68
2023/08/11 04:28:48;;;;;;;12.43;6.40;;;;;9.80;96934.00;;;;8246882;28;20191;-68
2023/08/11 04:32:53;;;;;;;10.70;6.10;;;;;9.90;96939.00;;;;8236611;28;21037;-68
2023/08/11 04:36:58;;;;;;;9.18;6.50;;;;;9.90;96943.00;;;;8255321;28;20880;-69
2023/08/11 04:41:03;;;;;;;13.65;7.32;;;;;9.90;96942.00;;;;8249704;28;20298;-69
2023/08/11 04:45:09;;;;;;;12.23;7.47;;;;;10.00;96935.00;;;;8245090;28;20198;-67
2023/08/11 04:49:13;;;;;;;18.52;7.78;;;;;10.10;96943.00;;;;8227521;28;20323;-67
2023/08/11 04:53:16;;;;;;;13.37;8.43;;;;;10.20;96943.00;;;;8252640;28;20248;-69
2023/08/11 04:57:22;;;;;;;15.70;9.07;;;;;10.40;96946.00;;;;8242546;28;20215;-68
2023/08/11 05:01:25;;;;;;;14.02;8.20;;;;;10.60;96950.00;;;;8239114;28;20262;-68
2023/08/11 05:05:32;;;;;;;13.32;7.80;;;;;10.80;96941.00;;;;8236367;28;20200;-68
2023/08/11 05:09:36;;;;;;;18.15;8.60;;;;;11.10;96947.00;;;;8249886;28;20201;-68
2023/08/11 05:13:43;;;;;;;15.10;8.77;;;;;11.30;96958.00;;;;8241344;28;20223;-69
2023/08/11 05:17:47;;;;;;;16.02;8.30;;;;;11.50;96966.00;;;;8234664;28;20194;-68
2023/08/11 05:21:52;;;;;;;11.00;7.20;;;;;11.70;96965.00;;;;8249140;28;20319;-68
2023/08/11 05:25:56;;;;;;;13.45;7.35;;;;;11.90;96970.00;;;;8249664;28;20304;-69
2023/08/11 05:30:12;;;;;;;11.32;6.80;;;;;12.10;96975.00;;;;8255896;28;20198;-69
2023/08/11 05:34:18;;;;;;;9.82;6.68;;;;;12.30;96980.00;;;;8240155;28;20334;-69
2023/08/11 05:38:22;;;;;;;9.32;6.22;;;;;12.60;96966.00;;;;8249030;28;20205;-69
2023/08/11 05:42:27;;;;;;;13.13;6.65;;;;;12.80;96970.00;;;;8238942;28;20238;-68
2023/08/11 05:46:32;;;;;;;9.15;6.95;;;;;13.10;96962.00;;;;8239601;28;20296;-69
2023/08/11 05:50:35;;;;;;;12.10;7.78;;;;;13.30;96971.00;;;;8245154;28;20317;-68
2023/08/11 05:54:40;;;;;;;13.10;8.43;;;;;13.50;96974.00;;;;8238871;28;20229;-67
2023/08/11 05:58:43;;;;;;;12.35;8.55;;;;;13.80;96975.00;;;;8244274;28;20308;-68
2023/08/11 06:02:48;;;;;;;14.15;8.13;;;;;14.00;96972.00;;;;8240793;28;20253;-68
2023/08/11 06:06:51;;;;;;;13.55;8.05;;;;;14.20;96972.00;;;;8238946;28;20268;-68
2023/08/11 06:11:00;;;;;;;23.63;7.65;;;;;14.50;96966.00;;;;8221654;28;20211;-67
2023/08/11 06:15:05;;;;;;;10.27;7.70;;;;;14.70;96966.00;;;;8235653;28;20562;-69
2023/08/11 06:19:12;;;;;;;10.18;7.30;;;;;14.90;96969.00;;;;8236161;28;20601;-67
2023/08/11 06:23:18;;;;;;;9.63;6.97;;;;;15.20;96969.00;;;;8238563;28;20200;-68
2023/08/11 06:27:21;;;;;;;7.30;6.15;;;;;15.50;96971.00;;;;8229998;28;20234;-68
2023/08/11 06:31:27;;;;;;;8.60;6.00;;;;;15.90;96974.00;;;;8236792;28;20215;-68
2023/08/11 06:35:32;;;;;;;5.78;4.82;;;;;16.40;96967.00;;;;8240996;28;20230;-69
2023/08/11 06:39:35;;;;;;;7.75;4.90;;;;;16.90;96973.00;;;;8241129;28;20203;-68
2023/08/11 06:43:39;;;;;;;5.45;4.03;;;;;17.50;96979.00;;;;8234685;28;20198;-70
2023/08/11 06:47:43;;;;;;;5.95;4.13;;;;;18.00;96981.00;;;;8228495;28;20196;-67
2023/08/11 06:51:47;;;;;;;4.90;4.35;;;;;18.40;96987.00;;;;8236743;28;20278;-67
2023/08/11 06:55:50;;;;;;;4.80;3.95;;;;;18.80;96996.00;;;;8237151;28;20272;-67
2023/08/11 06:59:56;;;;;;;4.15;3.78;;;;;19.30;97007.00;;;;8223513;28;20203;-67
2023/08/11 07:03:59;;;;;;;8.23;3.67;;;;;19.90;97003.00;;;;8211247;28;20322;-68
2023/08/11 07:08:11;;;;;;;5.03;3.53;;;;;20.40;97003.00;;;;8234011;28;20213;-67
2023/08/11 07:12:14;;;;;;;6.18;3.92;;;;;20.90;96997.00;;;;8239749;28;20205;-68
2023/08/11 07:16:17;;;;;;;4.05;3.50;;;;;21.30;97006.00;;;;8219283;28;20297;-67
2023/08/11 07:20:21;;;;;;;7.60;3.85;;;;;21.90;97009.00;;;;8237482;28;20195;-66
2023/08/11 07:24:27;;;;;;;4.22;3.35;;;;;22.60;97019.00;;;;8234265;28;20210;-68
2023/08/11 07:28:30;;;;;;;4.30;3.10;;;;;23.40;97019.00;;;;8230055;28;20210;-66
2023/08/11 07:32:41;;;;;;;3.60;3.30;;;;;24.00;97030.00;;;;8236809;28;20649;-67
2023/08/11 07:36:44;;;;;;;3.78;3.25;;;;;24.80;97026.00;;;;8235081;28;20306;-67
2023/08/11 07:40:49;;;;;;;3.00;2.80;;;;;25.30;97030.00;;;;8231860;28;20242;-66
2023/08/11 07:44:52;;;;;;;4.45;3.42;;;;;25.90;97040.00;;;;8231573;28;20207;-67
2023/08/11 07:48:58;;;;;;;4.72;3.30;;;;;26.20;97036.00;;;;8229743;28;20199;-67
2023/08/11 07:53:03;;;;;;;3.47;3.17;;;;;26.60;97038.00;;;;8229122;28;20245;-67
2023/08/11 07:57:10;;;;;;;9.48;3.22;;;;;27.00;97040.00;;;;8229357;28;20234;-68
2023/08/11 08:01:14;;;;;;;4.60;3.10;;;;;27.40;97036.00;;;;8233009;28;20901;-67
2023/08/11 08:05:20;;;;;;;4.93;2.78;;;;;27.60;97034.00;;;;8231640;28;20202;-67
2023/08/11 08:09:24;;;;;;;4.47;3.20;;;;;28.00;97030.00;;;;8230448;28;20241;-67
2023/08/11 08:13:31;;;;;;;5.25;3.20;;;;;28.50;97039.00;;;;8234987;28;20207;-67
2023/08/11 08:17:35;;;;;;;3.25;2.95;;;;;28.70;97052.00;;;;8232431;28;20265;-67
2023/08/11 08:21:42;;;;;;;3.72;2.95;;;;;28.90;97054.00;;;;8234349;28;20321;-67
2023/08/11 08:25:49;;;;;;;3.95;3.22;;;;;29.10;97052.00;;;;8232513;28;20945;-68
2023/08/11 08:29:54;;;;;;;4.18;3.05;;;;;29.20;97050.00;;;;8233642;28;20609;-67
2023/08/11 08:33:58;;;;;;;3.00;2.80;;;;;29.10;97058.00;;;;8234715;28;21021;-68
2023/08/11 08:38:01;;;;;;;3.75;2.83;;;;;29.00;97057.00;;;;8237400;28;20711;-68
2023/08/11 08:42:06;;;;;;;3.92;3.25;;;;;29.10;97061.00;;;;8234938;28;20290;-67
2023/08/11 08:46:14;;;;;;;3.00;2.70;;;;;29.20;97057.00;;;;8224666;28;20672;-68
2023/08/11 08:50:18;;;;;;;5.35;3.03;;;;;29.30;97063.00;;;;8212864;28;20230;-67
2023/08/11 08:54:22;;;;;;;3.92;3.05;;;;;29.60;97058.00;;;;8228923;28;20317;-67
2023/08/11 08:58:25;;;;;;;4.90;2.80;;;;;30.10;97057.00;;;;8236402;28;20292;-67
2023/08/11 09:02:31;;;;;;;2.47;2.38;;;;;30.60;97052.00;;;;8235961;28;20325;-68
2023/08/11 09:06:36;;;;;;;5.07;2.95;;;;;30.80;97053.00;;;;8236431;28;20199;-68
2023/08/11 09:10:42;;;;;;;3.10;2.50;;;;;30.90;97047.00;;;;8223332;28;20199;-67
2023/08/11 09:14:46;;;;;;;2.78;2.58;;;;;31.20;97050.00;;;;8236935;28;20305;-68
2023/08/11 09:18:52;;;;;;;3.00;2.70;;;;;31.40;97047.00;;;;8237501;28;20206;-68
2023/08/11 09:22:58;;;;;;;5.45;2.72;;;;;31.30;97054.00;;;;8229781;28;20202;-68
2023/08/11 09:27:03;;;;;;;2.63;2.42;;;;;31.60;97053.00;;;;8233349;28;20199;-68
2023/08/11 09:31:18;;;;;;;2.70;2.50;;;;;31.90;97049.00;;;;8230934;28;20203;-68
2023/08/11 09:35:26;;;;;;;2.78;2.58;;;;;32.20;97047.00;;;;8232330;28;20231;-68
2023/08/11 09:39:34;;;;;;;2.70;2.50;;;;;32.50;97046.00;;;;8237599;28;20191;-68
2023/08/11 09:43:37;;;;;;;3.75;2.25;;;;;32.90;97045.00;;;;8233207;28;20206;-68
2023/08/11 09:47:41;;;;;;;2.75;2.55;;;;;33.20;97047.00;;;;8240069;28;20211;-68
2023/08/11 09:51:49;;;;;;;2.67;2.47;;;;;33.30;97043.00;;;;8236641;28;20203;-68
2023/08/11 09:55:55;;;;;;;4.15;2.38;;;;;33.40;97043.00;;;;8239989;28;20917;-68
2023/08/11 10:00:00;;;;;;;2.33;2.13;;;;;33.50;97041.00;;;;8230001;28;20209;-68
2023/08/11 10:04:10;;;;;;;3.90;2.40;;;;;33.60;97040.00;;;;8230609;28;20226;-69
2023/08/11 10:08:19;;;;;;;3.03;2.47;;;;;33.80;97041.00;;;;8237951;28;20203;-69
2023/08/11 10:12:23;;;;;;;4.13;2.35;;;;;34.00;97036.00;;;;8232924;28;20195;-68
2023/08/11 10:16:27;;;;;;;3.03;2.35;;;;;34.10;97036.00;;;;8235359;28;20293;-68
2023/08/11 10:20:32;;;;;;;2.42;2.22;;;;;34.50;97038.00;;;;8236987;28;20716;-68
2023/08/11 10:24:43;;;;;;;2.10;2.00;;;;;34.60;97039.00;;;;8233430;28;20649;-68
2023/08/11 10:28:51;;;;;;;2.42;2.20;;;;;34.60;97045.00;;;;8237828;28;20237;-68
2023/08/11 10:33:03;;;;;;;2.45;2.25;;;;;34.50;97043.00;;;;8237576;28;20608;-66
2023/08/11 10:37:13;;;;;;;6.10;2.38;;;;;34.60;97042.00;;;;8238361;28;20643;-68
2023/08/11 10:41:19;;;;;;;2.55;2.35;;;;;34.70;97037.00;;;;8233980;28;20314;-68
2023/08/11 10:45:26;;;;;;;2.40;2.20;;;;;34.40;97038.00;;;;8237172;28;20250;-67
2023/08/11 10:49:35;;;;;;;2.85;2.42;;;;;34.50;97032.00;;;;8238869;28;20886;-66
2023/08/11 10:53:40;;;;;;;2.58;2.33;;;;;34.60;97044.00;;;;8248350;28;20756;-66
2023/08/11 10:58:12;;;;;;;2.55;2.25;;;;;35.00;97041.00;;;;8234045;28;20252;-66
2023/08/11 11:02:20;;;;;;;2.33;2.20;;;;;35.10;97034.00;;;;8236606;28;20238;-68
2023/08/11 11:06:26;;;;;;;2.38;2.20;;;;;35.00;97032.00;;;;8249488;28;21007;-67
2023/08/11 11:10:37;;;;;;;2.30;2.20;;;;;35.20;97028.00;;;;8242683;28;20205;-67
2023/08/11 11:14:53;;;;;;;3.60;2.30;;;;;35.30;97025.00;;;;8248513;28;20202;-66
2023/08/11 11:19:00;;;;;;;2.13;2.03;;;;;35.40;97026.00;;;;8251149;28;20588;-67
2023/08/11 11:23:04;;;;;;;3.90;2.30;;;;;35.50;97025.00;;;;8251150;28;20661;-69
2023/08/11 11:27:11;;;;;;;2.25;2.10;;;;;35.90;97023.00;;;;8242227;28;20206;-69
2023/08/11 11:31:16;;;;;;;2.33;2.20;;;;;36.10;97025.00;;;;8252131;28;20696;-69
2023/08/11 11:35:23;;;;;;;3.60;2.28;;;;;36.40;97027.00;;;;8245357;28;20234;-67
2023/08/11 11:39:26;;;;;;;2.95;1.90;;;;;36.50;97024.00;;;;8236969;28;20203;-66
2023/08/11 11:43:33;;;;;;;2.30;2.00;;;;;36.60;97020.00;;;;8243760;28;20590;-67
2023/08/11 11:47:46;;;;;;;9.23;2.50;;;;;36.60;97020.00;;;;8245000;28;20641;-67
2023/08/11 11:51:52;;;;;;;8.63;2.50;;;;;36.70;97017.00;;;;8241475;28;20231;-66
2023/08/11 11:55:58;;;;;;;2.30;2.17;;;;;36.70;97015.00;;;;8247642;28;20246;-66
2023/08/11 12:00:07;;;;;;;2.47;2.28;;;;;36.60;97023.00;;;;8238026;28;20997;-67
2023/08/11 12:04:12;;;;;;;4.70;2.03;;;;;36.60;97022.00;;;;8247539;28;20234;-66
2023/08/11 12:08:44;;;;;;;2.33;2.20;;;;;36.70;97015.00;;;;8249710;28;20203;-66
2023/08/11 12:12:59;;;;;;;2.40;2.20;;;;;36.20;97011.00;;;;8239729;28;20286;-66
2023/08/11 12:17:06;;;;;;;2.10;2.00;;;;;35.40;97005.00;;;;8243750;28;20248;-66
2023/08/11 12:21:14;;;;;;;2.05;1.95;;;;;34.50;97010.00;;;;8250479;28;20195;-66
2023/08/11 12:25:23;;;;;;;2.65;2.35;;;;;34.00;97014.00;;;;8260584;28;20218;-67
2023/08/11 12:29:26;;;;;;;2.40;2.20;;;;;33.50;97019.00;;;;8236002;28;20719;-66
2023/08/11 12:33:34;;;;;;;2.38;2.17;;;;;33.00;97018.00;;;;8255212;28;20746;-66
2023/08/11 12:37:42;;;;;;;3.53;2.30;;;;;32.50;97002.00;;;;8256148;28;20234;-66
2023/08/11 12:41:45;;;;;;;2.28;2.03;;;;;32.20;97007.00;;;;8256526;28;20637;-66
2023/08/11 12:45:52;;;;;;;3.05;2.08;;;;;32.00;96998.00;;;;8252432;28;20203;-67
2023/08/11 12:49:55;;;;;;;2.67;2.00;;;;;31.90;97005.00;;;;8257563;28;20202;-66
2023/08/11 12:54:00;;;;;;;2.22;2.13;;;;;31.50;96996.00;;;;8244787;28;20197;-66
2023/08/11 12:58:11;;;;;;;2.60;2.40;;;;;31.40;96998.00;;;;8253236;28;20273;-66
2023/08/11 13:02:19;;;;;;;5.60;2.20;;;;;31.40;97000.00;;;;8251755;28;20242;-66
2023/08/11 13:06:25;;;;;;;2.10;2.00;;;;;31.00;96991.00;;;;8257655;28;20226;-67
2023/08/11 13:10:30;;;;;;;2.72;2.53;;;;;30.70;96991.00;;;;8259074;28;20203;-66
2023/08/11 13:14:37;;;;;;;3.05;2.13;;;;;30.90;97000.00;;;;8258104;28;20798;-66
2023/08/11 13:18:41;;;;;;;2.10;2.00;;;;;31.10;96996.00;;;;8257763;28;20341;-67
2023/08/11 13:22:46;;;;;;;2.10;1.95;;;;;30.90;96988.00;;;;8259320;28;20317;-67
2023/08/11 13:26:51;;;;;;;2.20;2.10;;;;;30.90;96986.00;;;;8262891;28;20205;-67
2023/08/11 13:30:57;;;;;;;3.90;2.20;;;;;31.30;96987.00;;;;8257397;28;20218;-66
2023/08/11 13:35:01;;;;;;;2.33;2.17;;;;;31.60;96985.00;;;;8226084;28;20206;-67
2023/08/11 13:39:08;;;;;;;4.80;2.30;;;;;32.00;96986.00;;;;8242341;28;20231;-67
2023/08/11 13:43:15;;;;;;;2.95;1.98;;;;;32.70;96984.00;;;;8247404;28;20619;-67
2023/08/11 13:47:20;;;;;;;3.65;1.95;;;;;33.60;96983.00;;;;8251546;28;20903;-67
2023/08/11 13:51:26;;;;;;;2.50;2.17;;;;;34.50;96980.00;;;;8244423;28;20202;-67
2023/08/11 13:55:41;;;;;;;2.28;2.08;;;;;35.10;96986.00;;;;8250969;28;20202;-66
2023/08/11 13:59:46;;;;;;;2.97;2.50;;;;;35.50;96973.00;;;;8256093;28;20325;-67
2023/08/11 14:03:49;;;;;;;3.90;2.00;;;;;35.60;96974.00;;;;8250578;28;20337;-67
2023/08/11 14:07:55;;;;;;;2.10;2.00;;;;;36.00;96972.00;;;;8257076;28;20210;-66
2023/08/11 14:12:00;;;;;;;2.55;2.05;;;;;36.50;96969.00;;;;8247278;28;20569;-67
2023/08/11 14:16:07;;;;;;;2.17;2.08;;;;;36.90;96969.00;;;;8256194;28;20317;-67
2023/08/11 14:20:18;;;;;;;2.00;1.90;;;;;36.60;96965.00;;;;8255428;28;20947;-67
2023/08/11 14:24:21;;;;;;;2.15;2.05;;;;;36.70;96970.00;;;;8251962;28;20866;-67
2023/08/11 14:28:25;;;;;;;1.80;1.70;;;;;36.50;96962.00;;;;8251924;28;20344;-67
2023/08/11 14:32:30;;;;;;;2.70;2.13;;;;;36.50;96961.00;;;;8251974;28;20717;-67
2023/08/11 14:36:34;;;;;;;2.00;1.90;;;;;36.80;96962.00;;;;8253478;28;21037;-68
2023/08/11 14:40:42;;;;;;;2.08;1.80;;;;;37.00;96957.00;;;;8251418;28;20198;-68
2023/08/11 14:44:49;;;;;;;2.35;1.90;;;;;37.20;96961.00;;;;8253748;28;20749;-67
2023/08/11 14:48:54;;;;;;;5.45;1.90;;;;;36.90;96959.00;;;;8255239;28;20243;-68
2023/08/11 14:53:10;;;;;;;2.30;2.10;;;;;37.10;96959.00;;;;8234079;28;20289;-68
2023/08/11 14:57:15;;;;;;;8.05;1.80;;;;;37.10;96952.00;;;;8250469;28;20297;-67
2023/08/11 15:01:21;;;;;;;2.33;2.08;;;;;36.90;96955.00;;;;8251354;28;20293;-68
2023/08/11 15:05:26;;;;;;;1.83;1.73;;;;;36.70;96948.00;;;;8250500;28;20334;-67
2023/08/11 15:09:29;;;;;;;2.17;2.08;;;;;36.90;96945.00;;;;8259333;28;20205;-67
2023/08/11 15:13:35;;;;;;;1.75;1.70;;;;;36.80;96938.00;;;;8251999;28;20193;-67
2023/08/11 15:17:38;;;;;;;2.10;1.90;;;;;36.50;96946.00;;;;8242806;28;20254;-67
2023/08/11 15:21:42;;;;;;;3.65;1.60;;;;;36.10;96933.00;;;;8237273;28;20199;-67
2023/08/11 15:25:45;;;;;;;1.92;1.77;;;;;36.10;96937.00;;;;8238109;28;20252;-67
2023/08/11 15:29:49;;;;;;;4.63;1.67;;;;;36.10;96940.00;;;;8238472;28;20201;-67
2023/08/11 15:33:56;;;;;;;2.47;2.00;;;;;36.20;96934.00;;;;8239696;28;20206;-68
2023/08/11 15:38:05;;;;;;;2.35;2.13;;;;;36.40;96933.00;;;;8237135;28;20321;-68
2023/08/11 15:42:11;;;;;;;2.33;2.13;;;;;36.30;96933.00;;;;8239496;28;20198;-68
2023/08/11 15:46:21;;;;;;;2.25;2.03;;;;;36.30;96932.00;;;;8234930;28;20206;-68
2023/08/11 15:50:24;;;;;;;2.10;2.00;;;;;36.30;96929.00;;;;8241839;28;20202;-67
2023/08/11 15:54:29;;;;;;;2.25;2.05;;;;;36.20;96931.00;;;;8235672;28;20314;-68
2023/08/11 15:58:37;;;;;;;2.92;1.90;;;;;36.00;96927.00;;;;8242072;28;20277;-68
2023/08/11 16:02:43;;;;;;;2.13;2.03;;;;;35.90;96931.00;;;;8243949;28;20230;-72
2023/08/11 16:06:48;;;;;;;1.90;1.80;;;;;35.90;96935.00;;;;8245128;28;20306;-71
2023/08/11 16:10:53;;;;;;;4.47;2.15;;;;;35.80;96933.00;;;;8249031;28;20207;-70
2023/08/11 16:14:56;;;;;;;2.65;2.10;;;;;35.70;96934.00;;;;8249787;28;20203;-71
2023/08/11 16:19:01;;;;;;;2.30;2.20;;;;;35.80;96941.00;;;;8232737;28;20238;-71
2023/08/11 16:23:11;;;;;;;2.88;2.33;;;;;35.90;96937.00;;;;8252181;28;20241;-72
2023/08/11 16:27:15;;;;;;;3.78;1.77;;;;;35.90;96932.00;;;;8247924;28;20715;-72
2023/08/11 16:31:21;;;;;;;3.20;2.05;;;;;36.10;96931.00;;;;8255714;28;20202;-70
2023/08/11 16:35:24;;;;;;;2.83;2.30;;;;;36.10;96929.00;;;;8250432;28;20261;-70
2023/08/11 16:39:27;;;;;;;2.95;1.83;;;;;35.90;96926.00;;;;8247963;28;20230;-70
2023/08/11 16:43:32;;;;;;;2.30;2.17;;;;;36.00;96921.00;;;;8253303;28;20202;-70
2023/08/11 16:47:35;;;;;;;3.58;2.17;;;;;35.80;96919.00;;;;8251417;28;20202;-70
2023/08/11 16:51:39;;;;;;;3.05;1.90;;;;;35.90;96927.00;;;;8245989;28;20207;-73
2023/08/11 16:55:49;;;;;;;2.50;2.35;;;;;35.70;96920.00;;;;8246815;28;21243;-69
2023/08/11 16:59:55;;;;;;;2.20;2.10;;;;;35.60;96912.00;;;;8242013;28;20223;-69
2023/08/11 17:03:58;;;;;;;2.85;2.00;;;;;35.70;96913.00;;;;8226315;28;20325;-71
2023/08/11 17:08:04;;;;;;;3.38;2.15;;;;;35.70;96906.00;;;;8243897;28;20221;-71
2023/08/11 17:12:08;;;;;;;3.30;2.00;;;;;35.50;96914.00;;;;8249319;28;20713;-70
2023/08/11 17:16:17;;;;;;;2.13;2.00;;;;;35.10;96915.00;;;;8252275;28;20187;-70
2023/08/11 17:20:20;;;;;;;4.13;2.10;;;;;34.40;96917.00;;;;8248377;28;20226;-70
2023/08/11 17:24:24;;;;;;;2.40;2.25;;;;;33.90;96917.00;;;;8260159;28;20548;-69
2023/08/11 17:28:29;;;;;;;2.50;2.40;;;;;33.20;96916.00;;;;8259734;28;20275;-71
2023/08/11 17:32:35;;;;;;;2.75;2.40;;;;;32.50;96902.00;;;;8221577;28;20203;-70
2023/08/11 17:36:40;;;;;;;2.30;2.10;;;;;32.00;96904.00;;;;8263309;28;20265;-70
2023/08/11 17:40:43;;;;;;;4.47;2.20;;;;;31.40;96902.00;;;;8254084;28;20225;-69
2023/08/11 17:44:48;;;;;;;2.38;2.20;;;;;30.80;96888.00;;;;8253340;28;20717;-68
2023/08/11 17:48:53;;;;;;;7.25;2.42;;;;;30.10;96892.00;;;;8250232;28;20206;-69
2023/08/11 17:52:56;;;;;;;3.45;2.60;;;;;29.50;96888.00;;;;8245553;28;20561;-70
2023/08/11 17:56:59;;;;;;;4.55;2.90;;;;;29.00;96884.00;;;;8256217;28;20753;-71
2023/08/11 18:01:08;;;;;;;3.22;3.03;;;;;28.50;96879.00;;;;8254794;28;20683;-70
2023/08/11 18:05:13;;;;;;;3.65;2.78;;;;;28.10;96882.00;;;;8248969;28;20557;-70
2023/08/11 18:09:17;;;;;;;3.00;2.60;;;;;27.70;96889.00;;;;8247472;28;20486;-70
2023/08/11 18:13:21;;;;;;;3.80;2.60;;;;;27.40;96883.00;;;;8232836;28;20740;-71
2023/08/11 18:17:29;;;;;;;3.83;2.90;;;;;27.10;96876.00;;;;8250352;28;20891;-70
2023/08/11 18:21:42;;;;;;;4.07;2.78;;;;;26.80;96875.00;;;;8247890;28;20249;-69
2023/08/11 18:25:53;;;;;;;4.35;2.90;;;;;26.50;96883.00;;;;8250412;28;20210;-70
2023/08/11 18:30:00;;;;;;;5.15;2.97;;;;;26.30;96885.00;;;;8248670;28;20794;-69
2023/08/11 18:34:06;;;;;;;6.38;3.10;;;;;26.00;96895.00;;;;8242976;28;20347;-71
2023/08/11 18:38:13;;;;;;;3.58;2.60;;;;;25.70;96901.00;;;;8249616;28;20238;-71
2023/08/11 18:42:17;;;;;;;4.15;3.25;;;;;25.30;96904.00;;;;8249712;28;22090;-70
2023/08/11 18:46:20;;;;;;;9.15;3.42;;;;;24.80;96901.00;;;;8252366;28;20198;-69
2023/08/11 18:50:23;;;;;;;7.90;3.20;;;;;24.40;96908.00;;;;8250801;28;20731;-69
2023/08/11 18:54:30;;;;;;;3.75;3.10;;;;;23.90;96903.00;;;;8233241;28;20199;-69
2023/08/11 18:58:33;;;;;;;5.22;3.28;;;;;23.50;96900.00;;;;8240029;28;20314;-69
2023/08/11 19:02:39;;;;;;;3.40;3.10;;;;;23.10;96896.00;;;;8245210;28;20234;-69
2023/08/11 19:06:44;;;;;;;4.57;3.22;;;;;22.70;96897.00;;;;8235007;28;20194;-70
2023/08/11 19:10:50;;;;;;;3.90;3.47;;;;;22.30;96902.00;;;;8250439;28;20290;-69
2023/08/11 19:14:56;;;;;;;5.15;3.15;;;;;22.00;96905.00;;;;8245891;28;20203;-69
2023/08/11 19:18:59;;;;;;;3.78;3.47;;;;;21.80;96912.00;;;;8254976;28;20269;-69
2023/08/11 19:23:04;;;;;;;5.65;3.70;;;;;21.60;96917.00;;;;8249387;28;20203;-69
2023/08/11 19:27:09;;;;;;;4.72;3.75;;;;;21.40;96917.00;;;;8245724;28;20286;-69
2023/08/11 19:31:13;;;;;;;6.88;4.03;;;;;21.30;96920.00;;;;8244720;28;20663;-69
2023/08/11 19:35:17;;;;;;;4.90;3.53;;;;;21.10;96917.00;;;;8239477;28;20286;-73
2023/08/11 19:39:22;;;;;;;7.78;4.20;;;;;20.90;96910.00;;;;8249563;28;20223;-72
2023/08/11 19:43:29;;;;;;;5.30;3.78;;;;;20.80;96911.00;;;;8246073;28;20199;-71
2023/08/11 19:47:35;;;;;;;4.35;3.63;;;;;20.70;96901.00;;;;8251376;28;20207;-70
2023/08/11 19:51:44;;;;;;;5.93;3.95;;;;;20.60;96904.00;;;;8248601;28;20784;-71
2023/08/11 19:55:52;;;;;;;6.57;4.20;;;;;20.50;96897.00;;;;8253028;28;20203;-72
2023/08/11 19:59:57;;;;;;;7.20;3.97;;;;;20.40;96887.00;;;;8239198;28;20215;-71
2023/08/11 20:04:01;;;;;;;5.85;4.00;;;;;20.30;96884.00;;;;8234594;28;20258;-71
2023/08/11 20:08:06;;;;;;;5.82;3.97;;;;;20.20;96892.00;;;;8238920;28;20202;-73
2023/08/11 20:12:09;;;;;;;4.78;3.85;;;;;20.00;96887.00;;;;8237963;28;20209;-73
2023/08/11 20:16:14;;;;;;;6.88;4.18;;;;;19.90;96891.00;;;;8238352;28;20280;-73
2023/08/11 20:20:19;;;;;;;5.57;4.43;;;;;19.80;96882.00;;;;8245956;28;20735;-74
2023/08/11 20:24:27;;;;;;;5.80;4.07;;;;;19.70;96888.00;;;;8248093;28;20198;-74
2023/08/11 20:28:30;;;;;;;8.30;4.28;;;;;19.60;96885.00;;;;8251139;28;21188;-73